KZZV/ZZV METAR and TAF weather

Enter ICAO airport designator
Station Type Date Time Source
KZZV METAR 2018/12/13 05:53 UTC NOAA

KZZV 130553Z AUTO 19006KT 10SM SCT065 02/M03 A3001 RMK AO2 SLP170 T00221033 10050 20011 51006


Station Type Date Time Source
KZZV Decoded METAR 2018/12/13 05:53 UTC NOAA

ZANESVILLE MUNICIPAL AIRPORT , OH, United States (KZZV) 39-57N 81-54W 268M
Dec 13, 2018 - 12:53 AM EST / 2018.12.13 0553 UTC
Wind: from the S (190 degrees) at 7 MPH (6 KT):0
Visibility: 10 mile(s):0
Sky conditions: partly cloudy
Temperature: 36.0 F (2.2 C)
Dew Point: 26.1 F (-3.3 C)
Relative Humidity: 66%
Pressure (altimeter): 30.01 in. Hg (1016 hPa)
Pressure tendency: 0.02 inches (0.6 hPa) higher than three hours ago
ob: KZZV 130553Z AUTO 19006KT 10SM SCT065 02/M03 A3001 RMK AO2 SLP170 T00221033 10050 20011 51006
cycle: 6

Station Type Date Time Source
KZZV TAF 2018/12/13 06:22 UTC NOAA

TAF KZZV 130520Z 1306/1406 20008KT P6SM BKN060
FM131400 18005KT P6SM BKN025
FM140000 13005KT P6SM BKN035


Example: see airport list